sensor_id;sensor_type;location;lat;lon;timestamp;pressure;altitude;pressure_sealevel;temperature
70668;BMP280;58242;51.250;-1.118;2023-03-15T00:01:42;100121.59;;;10.01
70668;BMP280;58242;51.250;-1.118;2023-03-15T00:04:10;100124.91;;;9.98
70668;BMP280;58242;51.250;-1.118;2023-03-15T00:06:36;100127.09;;;9.96
70668;BMP280;58242;51.250;-1.118;2023-03-15T00:09:01;100130.84;;;9.95
70668;BMP280;58242;51.250;-1.118;2023-03-15T00:11:28;100133.06;;;9.93
70668;BMP280;58242;51.250;-1.118;2023-03-15T00:13:57;100135.25;;;9.91
70668;BMP280;58242;51.250;-1.118;2023-03-15T00:16:23;100148.47;;;9.88
70668;BMP280;58242;51.250;-1.118;2023-03-15T00:18:52;100141.88;;;9.86
70668;BMP280;58242;51.250;-1.118;2023-03-15T00:21:18;100144.06;;;9.84
70668;BMP280;58242;51.250;-1.118;2023-03-15T00:23:44;100143.59;;;9.82
70668;BMP280;58242;51.250;-1.118;2023-03-15T00:26:09;100153.03;;;9.79
70668;BMP280;58242;51.250;-1.118;2023-03-15T00:28:34;100154.44;;;9.77
70668;BMP280;58242;51.250;-1.118;2023-03-15T00:31:13;100160.13;;;9.75
70668;BMP280;58242;51.250;-1.118;2023-03-15T00:33:39;100172.16;;;9.73
70668;BMP280;58242;51.250;-1.118;2023-03-15T00:36:06;100169.81;;;9.72
70668;BMP280;58242;51.250;-1.118;2023-03-15T00:38:37;100174.66;;;9.70
70668;BMP280;58242;51.250;-1.118;2023-03-15T00:41:07;100177.19;;;9.66
70668;BMP280;58242;51.250;-1.118;2023-03-15T00:43:33;100175.94;;;9.64
70668;BMP280;58242;51.250;-1.118;2023-03-15T00:45:59;100166.66;;;9.61
70668;BMP280;58242;51.250;-1.118;2023-03-15T00:48:24;100176.09;;;9.59
70668;BMP280;58242;51.250;-1.118;2023-03-15T00:50:49;100180.97;;;9.57
70668;BMP280;58242;51.250;-1.118;2023-03-15T00:53:15;100173.28;;;9.56
70668;BMP280;58242;51.250;-1.118;2023-03-15T00:55:40;100169.34;;;9.53
70668;BMP280;58242;51.250;-1.118;2023-03-15T00:58:07;100169.16;;;9.50
70668;BMP280;58242;51.250;-1.118;2023-03-15T01:00:32;100169.50;;;9.48
70668;BMP280;58242;51.250;-1.118;2023-03-15T01:02:58;100173.59;;;9.46
70668;BMP280;58242;51.250;-1.118;2023-03-15T01:05:23;100180.31;;;9.43
70668;BMP280;58242;51.250;-1.118;2023-03-15T01:07:50;100187.06;;;9.41
70668;BMP280;58242;51.250;-1.118;2023-03-15T01:10:16;100199.94;;;9.39
70668;BMP280;58242;51.250;-1.118;2023-03-15T01:12:42;100194.44;;;9.36
70668;BMP280;58242;51.250;-1.118;2023-03-15T01:15:08;100195.06;;;9.33
70668;BMP280;58242;51.250;-1.118;2023-03-15T01:17:36;100199.59;;;9.32
70668;BMP280;58242;51.250;-1.118;2023-03-15T01:20:01;100195.06;;;9.33
70668;BMP280;58242;51.250;-1.118;2023-03-15T01:22:28;100198.19;;;9.35
70668;BMP280;58242;51.250;-1.118;2023-03-15T01:24:53;100198.19;;;9.35
70668;BMP280;58242;51.250;-1.118;2023-03-15T01:27:19;100199.78;;;9.36
70668;BMP280;58242;51.250;-1.118;2023-03-15T01:29:44;100197.88;;;9.36
70668;BMP280;58242;51.250;-1.118;2023-03-15T01:32:10;100209.66;;;9.35
70668;BMP280;58242;51.250;-1.118;2023-03-15T01:34:35;100210.78;;;9.34
70668;BMP280;58242;51.250;-1.118;2023-03-15T01:37:01;100213.44;;;9.34
70668;BMP280;58242;51.250;-1.118;2023-03-15T01:39:27;100209.97;;;9.34
70668;BMP280;58242;51.250;-1.118;2023-03-15T01:41:53;100213.44;;;9.34
70668;BMP280;58242;51.250;-1.118;2023-03-15T01:44:18;100216.09;;;9.34
70668;BMP280;58242;51.250;-1.118;2023-03-15T01:46:44;100210.28;;;9.32
70668;BMP280;58242;51.250;-1.118;2023-03-15T01:49:16;100215.16;;;9.30
70668;BMP280;58242;51.250;-1.118;2023-03-15T01:54:31;100230.81;;;9.23
70668;BMP280;58242;51.250;-1.118;2023-03-15T01:57:05;100243.97;;;9.20
70668;BMP280;58242;51.250;-1.118;2023-03-15T01:59:36;100245.84;;;9.20
70668;BMP280;58242;51.250;-1.118;2023-03-15T02:02:03;100241.94;;;9.17
70668;BMP280;58242;51.250;-1.118;2023-03-15T02:04:40;100239.09;;;9.14
70668;BMP280;58242;51.250;-1.118;2023-03-15T02:07:11;100238.16;;;9.10
70668;BMP280;58242;51.250;-1.118;2023-03-15T02:09:51;100234.53;;;9.06
70668;BMP280;58242;51.250;-1.118;2023-03-15T02:12:18;100240.50;;;9.03
70668;BMP280;58242;51.250;-1.118;2023-03-15T02:14:44;100236.56;;;9.01
70668;BMP280;58242;51.250;-1.118;2023-03-15T02:17:10;100239.03;;;8.97
70668;BMP280;58242;51.250;-1.118;2023-03-15T02:22:25;100233.38;;;8.90
70668;BMP280;58242;51.250;-1.118;2023-03-15T02:27:29;100226.13;;;8.83
70668;BMP280;58242;51.250;-1.118;2023-03-15T02:29:56;100227.84;;;8.79
70668;BMP280;58242;51.250;-1.118;2023-03-15T02:32:21;100229.72;;;8.78
70668;BMP280;58242;51.250;-1.118;2023-03-15T02:34:46;100228.47;;;8.76
70668;BMP280;58242;51.250;-1.118;2023-03-15T02:37:12;100228.00;;;8.74
70668;BMP280;58242;51.250;-1.118;2023-03-15T02:39:37;100234.72;;;8.71
70668;BMP280;58242;51.250;-1.118;2023-03-15T02:42:02;100237.69;;;8.70
70668;BMP280;58242;51.250;-1.118;2023-03-15T02:44:33;100243.63;;;8.67
70668;BMP280;58242;51.250;-1.118;2023-03-15T02:47:04;100230.91;;;8.64
70668;BMP280;58242;51.250;-1.118;2023-03-15T02:49:33;100236.88;;;8.61
70668;BMP280;58242;51.250;-1.118;2023-03-15T02:51:59;100238.56;;;8.57
70668;BMP280;58242;51.250;-1.118;2023-03-15T02:54:24;100228.53;;;8.54
70668;BMP280;58242;51.250;-1.118;2023-03-15T02:56:49;100240.28;;;8.54
70668;BMP280;58242;51.250;-1.118;2023-03-15T02:59:15;100239.00;;;8.51
70668;BMP280;58242;51.250;-1.118;2023-03-15T03:01:41;100236.94;;;8.48
70668;BMP280;58242;51.250;-1.118;2023-03-15T03:04:06;100235.38;;;8.47
70668;BMP280;58242;51.250;-1.118;2023-03-15T03:06:32;100235.69;;;8.46
70668;BMP280;58242;51.250;-1.118;2023-03-15T03:08:57;100221.09;;;8.43
70668;BMP280;58242;51.250;-1.118;2023-03-15T03:11:22;100229.38;;;8.42
70668;BMP280;58242;51.250;-1.118;2023-03-15T03:13:48;100226.25;;;8.40
70668;BMP280;58242;51.250;-1.118;2023-03-15T03:16:13;100232.16;;;8.37
70668;BMP280;58242;51.250;-1.118;2023-03-15T03:18:39;100229.03;;;8.35
70668;BMP280;58242;51.250;-1.118;2023-03-15T03:21:06;100225.13;;;8.33
70668;BMP280;58242;51.250;-1.118;2023-03-15T03:23:33;100246.72;;;8.31
70668;BMP280;58242;51.250;-1.118;2023-03-15T03:25:59;100262.53;;;8.28
70668;BMP280;58242;51.250;-1.118;2023-03-15T03:28:28;100265.00;;;8.24
70668;BMP280;58242;51.250;-1.118;2023-03-15T03:30:55;100256.34;;;8.19
70668;BMP280;58242;51.250;-1.118;2023-03-15T03:33:21;100252.44;;;8.17
70668;BMP280;58242;51.250;-1.118;2023-03-15T03:35:47;100259.91;;;8.15
70668;BMP280;58242;51.250;-1.118;2023-03-15T03:38:13;100272.25;;;8.11
70668;BMP280;58242;51.250;-1.118;2023-03-15T03:40:38;100283.22;;;8.09
70668;BMP280;58242;51.250;-1.118;2023-03-15T03:43:04;100288.38;;;8.06
70668;BMP280;58242;51.250;-1.118;2023-03-15T03:45:30;100287.06;;;8.03
70668;BMP280;58242;51.250;-1.118;2023-03-15T03:47:55;100293.00;;;8.01
70668;BMP280;58242;51.250;-1.118;2023-03-15T03:50:20;100302.41;;;7.98
70668;BMP280;58242;51.250;-1.118;2023-03-15T03:52:46;100297.63;;;7.95
70668;BMP280;58242;51.250;-1.118;2023-03-15T03:55:11;100289.44;;;7.92
70668;BMP280;58242;51.250;-1.118;2023-03-15T03:57:38;100280.19;;;7.89
70668;BMP280;58242;51.250;-1.118;2023-03-15T04:00:04;100285.06;;;7.87
70668;BMP280;58242;51.250;-1.118;2023-03-15T04:02:29;100290.94;;;7.85
70668;BMP280;58242;51.250;-1.118;2023-03-15T04:04:55;100298.75;;;7.81
70668;BMP280;58242;51.250;-1.118;2023-03-15T04:07:20;100290.59;;;7.78
70668;BMP280;58242;51.250;-1.118;2023-03-15T04:09:45;100280.53;;;7.75
70668;BMP280;58242;51.250;-1.118;2023-03-15T04:12:11;100281.94;;;7.72
70668;BMP280;58242;51.250;-1.118;2023-03-15T04:14:36;100287.03;;;7.69
70668;BMP280;58242;51.250;-1.118;2023-03-15T04:17:02;100287.66;;;7.66
70668;BMP280;58242;51.250;-1.118;2023-03-15T04:19:28;100282.94;;;7.63
70668;BMP280;58242;51.250;-1.118;2023-03-15T04:21:53;100284.00;;;7.62
70668;BMP280;58242;51.250;-1.118;2023-03-15T04:24:18;100280.38;;;7.58
70668;BMP280;58242;51.250;-1.118;2023-03-15T04:26:43;100281.78;;;7.56
70668;BMP280;58242;51.250;-1.118;2023-03-15T04:29:09;100285.03;;;7.53
70668;BMP280;58242;51.250;-1.118;2023-03-15T04:31:36;100282.94;;;7.50
70668;BMP280;58242;51.250;-1.118;2023-03-15T04:34:03;100283.56;;;7.47
70668;BMP280;58242;51.250;-1.118;2023-03-15T04:36:29;100285.72;;;7.45
70668;BMP280;58242;51.250;-1.118;2023-03-15T04:38:55;100280.22;;;7.42
70668;BMP280;58242;51.250;-1.118;2023-03-15T04:41:28;100288.50;;;7.40
70668;BMP280;58242;51.250;-1.118;2023-03-15T04:43:53;100282.97;;;7.37
70668;BMP280;58242;51.250;-1.118;2023-03-15T04:46:18;100290.44;;;7.35
70668;BMP280;58242;51.250;-1.118;2023-03-15T04:48:44;100294.22;;;7.34
70668;BMP280;58242;51.250;-1.118;2023-03-15T04:51:09;100291.38;;;7.31
70668;BMP280;58242;51.250;-1.118;2023-03-15T04:53:34;100293.84;;;7.27
70668;BMP280;58242;51.250;-1.118;2023-03-15T04:56:00;100301.31;;;7.25
70668;BMP280;58242;51.250;-1.118;2023-03-15T04:58:25;100293.63;;;7.24
70668;BMP280;58242;51.250;-1.118;2023-03-15T05:00:52;100292.06;;;7.23
70668;BMP280;58242;51.250;-1.118;2023-03-15T05:03:17;100297.66;;;7.21
70668;BMP280;58242;51.250;-1.118;2023-03-15T05:05:43;100302.50;;;7.19
70668;BMP280;58242;51.250;-1.118;2023-03-15T05:08:09;100295.88;;;7.17
70668;BMP280;58242;51.250;-1.118;2023-03-15T05:10:34;100282.13;;;7.15
70668;BMP280;58242;51.250;-1.118;2023-03-15T05:13:00;100292.25;;;7.13
70668;BMP280;58242;51.250;-1.118;2023-03-15T05:15:25;100297.38;;;7.10
70668;BMP280;58242;51.250;-1.118;2023-03-15T05:17:51;100295.78;;;7.09
70668;BMP280;58242;51.250;-1.118;2023-03-15T05:20:19;100291.06;;;7.06
70668;BMP280;58242;51.250;-1.118;2023-03-15T05:22:44;100299.34;;;7.04
70668;BMP280;58242;51.250;-1.118;2023-03-15T05:25:10;100307.59;;;7.03
70668;BMP280;58242;51.250;-1.118;2023-03-15T05:27:36;100305.53;;;7.00
70668;BMP280;58242;51.250;-1.118;2023-03-15T05:30:02;100307.69;;;6.98
70668;BMP280;58242;51.250;-1.118;2023-03-15T05:32:29;100304.56;;;6.96
70668;BMP280;58242;51.250;-1.118;2023-03-15T05:34:59;100305.16;;;6.93
70668;BMP280;58242;51.250;-1.118;2023-03-15T05:37:24;100317.66;;;6.93
70668;BMP280;58242;51.250;-1.118;2023-03-15T05:39:49;100321.66;;;6.90
70668;BMP280;58242;51.250;-1.118;2023-03-15T05:42:14;100323.53;;;6.90
70668;BMP280;58242;51.250;-1.118;2023-03-15T05:44:46;100318.53;;;6.88
70668;BMP280;58242;51.250;-1.118;2023-03-15T05:47:11;100320.38;;;6.88
70668;BMP280;58242;51.250;-1.118;2023-03-15T05:49:36;100317.22;;;6.86
70668;BMP280;58242;51.250;-1.118;2023-03-15T05:52:02;100324.13;;;6.87
70668;BMP280;58242;51.250;-1.118;2023-03-15T05:54:27;100321.78;;;6.85
70668;BMP280;58242;51.250;-1.118;2023-03-15T05:56:52;100319.13;;;6.85
70668;BMP280;58242;51.250;-1.118;2023-03-15T05:59:18;100324.91;;;6.87
70668;BMP280;58242;51.250;-1.118;2023-03-15T06:01:43;100332.88;;;6.87
70668;BMP280;58242;51.250;-1.118;2023-03-15T06:04:08;100332.09;;;6.87
70668;BMP280;58242;51.250;-1.118;2023-03-15T06:06:33;100341.38;;;6.89
70668;BMP280;58242;51.250;-1.118;2023-03-15T06:08:59;100340.25;;;6.90
70668;BMP280;58242;51.250;-1.118;2023-03-15T06:11:24;100340.25;;;6.90
70668;BMP280;58242;51.250;-1.118;2023-03-15T06:13:50;100336.53;;;6.91
70668;BMP280;58242;51.250;-1.118;2023-03-15T06:16:15;100343.44;;;6.92
70668;BMP280;58242;51.250;-1.118;2023-03-15T06:18:40;100344.69;;;6.95
70668;BMP280;58242;51.250;-1.118;2023-03-15T06:21:05;100345.50;;;6.95
70668;BMP280;58242;51.250;-1.118;2023-03-15T06:23:31;100342.03;;;6.95
70668;BMP280;58242;51.250;-1.118;2023-03-15T06:25:56;100352.38;;;6.96
70668;BMP280;58242;51.250;-1.118;2023-03-15T06:28:21;100355.53;;;6.98
70668;BMP280;58242;51.250;-1.118;2023-03-15T06:30:46;100351.78;;;6.99
70668;BMP280;58242;51.250;-1.118;2023-03-15T06:33:12;100358.38;;;7.01
70668;BMP280;58242;51.250;-1.118;2023-03-15T06:35:37;100360.75;;;7.03
70668;BMP280;58242;51.250;-1.118;2023-03-15T06:38:02;100353.28;;;7.05
70668;BMP280;58242;51.250;-1.118;2023-03-15T06:40:29;100361.94;;;7.10
70668;BMP280;58242;51.250;-1.118;2023-03-15T06:42:54;100362.16;;;7.14
70668;BMP280;58242;51.250;-1.118;2023-03-15T06:45:19;100348.25;;;7.17
70668;BMP280;58242;51.250;-1.118;2023-03-15T06:47:44;100359.59;;;7.22
70668;BMP280;58242;51.250;-1.118;2023-03-15T06:50:10;100363.53;;;7.24
70668;BMP280;58242;51.250;-1.118;2023-03-15T06:52:36;100371.41;;;7.29
70668;BMP280;58242;51.250;-1.118;2023-03-15T06:55:03;100362.56;;;7.34
70668;BMP280;58242;51.250;-1.118;2023-03-15T06:57:28;100371.53;;;7.37
70668;BMP280;58242;51.250;-1.118;2023-03-15T06:59:54;100380.50;;;7.41
70668;BMP280;58242;51.250;-1.118;2023-03-15T07:02:19;100377.25;;;7.44
70668;BMP280;58242;51.250;-1.118;2023-03-15T07:04:45;100384.34;;;7.49
70668;BMP280;58242;51.250;-1.118;2023-03-15T07:07:11;100383.44;;;7.53
70668;BMP280;58242;51.250;-1.118;2023-03-15T07:09:37;100386.78;;;7.58
70668;BMP280;58242;51.250;-1.118;2023-03-15T07:12:03;100386.97;;;7.62
70668;BMP280;58242;51.250;-1.118;2023-03-15T07:14:28;100380.78;;;7.66
70668;BMP280;58242;51.250;-1.118;2023-03-15T07:16:53;100388.66;;;7.71
70668;BMP280;58242;51.250;-1.118;2023-03-15T07:19:19;100379.47;;;7.77
70668;BMP280;58242;51.250;-1.118;2023-03-15T07:21:44;100385.22;;;7.84
70668;BMP280;58242;51.250;-1.118;2023-03-15T07:24:09;100394.56;;;7.94
70668;BMP280;58242;51.250;-1.118;2023-03-15T07:26:35;100397.00;;;8.04
70668;BMP280;58242;51.250;-1.118;2023-03-15T07:29:00;100399.94;;;8.16
70668;BMP280;58242;51.250;-1.118;2023-03-15T07:31:25;100403.84;;;8.31
70668;BMP280;58242;51.250;-1.118;2023-03-15T07:33:51;100403.50;;;8.46
70668;BMP280;58242;51.250;-1.118;2023-03-15T07:36:16;100407.09;;;8.63
70668;BMP280;58242;51.250;-1.118;2023-03-15T07:38:41;100403.16;;;8.82
70668;BMP280;58242;51.250;-1.118;2023-03-15T07:41:07;100403.75;;;9.00
70668;BMP280;58242;51.250;-1.118;2023-03-15T07:43:33;100399.28;;;9.17
70668;BMP280;58242;51.250;-1.118;2023-03-15T07:45:59;100392.19;;;9.34
70668;BMP280;58242;51.250;-1.118;2023-03-15T07:48:24;100396.47;;;9.52
70668;BMP280;58242;51.250;-1.118;2023-03-15T07:50:50;100399.69;;;9.70
70668;BMP280;58242;51.250;-1.118;2023-03-15T07:53:15;100401.66;;;9.86
70668;BMP280;58242;51.250;-1.118;2023-03-15T07:55:41;100402.16;;;10.05
70668;BMP280;58242;51.250;-1.118;2023-03-15T07:58:06;100396.22;;;10.24
70668;BMP280;58242;51.250;-1.118;2023-03-15T08:00:32;100393.41;;;10.45
70668;BMP280;58242;51.250;-1.118;2023-03-15T08:02:57;100384.91;;;10.68
70668;BMP280;58242;51.250;-1.118;2023-03-15T08:05:23;100388.47;;;10.97
70668;BMP280;58242;51.250;-1.118;2023-03-15T08:07:49;100382.41;;;11.25
70668;BMP280;58242;51.250;-1.118;2023-03-15T08:10:16;100373.03;;;11.55
70668;BMP280;58242;51.250;-1.118;2023-03-15T08:12:42;100385.81;;;11.86
70668;BMP280;58242;51.250;-1.118;2023-03-15T08:15:11;100391.06;;;12.23
70668;BMP280;58242;51.250;-1.118;2023-03-15T08:17:37;100383.91;;;12.55
70668;BMP280;58242;51.250;-1.118;2023-03-15T08:20:04;100390.09;;;12.87
70668;BMP280;58242;51.250;-1.118;2023-03-15T08:22:30;100393.41;;;13.16
70668;BMP280;58242;51.250;-1.118;2023-03-15T08:24:55;100404.78;;;13.44
70668;BMP280;58242;51.250;-1.118;2023-03-15T08:27:24;100384.22;;;13.71
70668;BMP280;58242;51.250;-1.118;2023-03-15T08:29:50;100383.69;;;14.01
70668;BMP280;58242;51.250;-1.118;2023-03-15T08:32:17;100386.19;;;14.33
70668;BMP280;58242;51.250;-1.118;2023-03-15T08:34:42;100391.03;;;14.66
70668;BMP280;58242;51.250;-1.118;2023-03-15T08:37:11;100382.03;;;15.00
70668;BMP280;58242;51.250;-1.118;2023-03-15T08:39:37;100380.19;;;15.31
70668;BMP280;58242;51.250;-1.118;2023-03-15T08:42:03;100374.38;;;15.59
70668;BMP280;58242;51.250;-1.118;2023-03-15T08:44:29;100374.78;;;15.91
70668;BMP280;58242;51.250;-1.118;2023-03-15T08:46:55;100385.53;;;16.21
70668;BMP280;58242;51.250;-1.118;2023-03-15T08:49:20;100377.34;;;16.51
70668;BMP280;58242;51.250;-1.118;2023-03-15T08:51:45;100380.69;;;16.82
70668;BMP280;58242;51.250;-1.118;2023-03-15T08:54:10;100370.41;;;17.06
70668;BMP280;58242;51.250;-1.118;2023-03-15T08:56:38;100373.47;;;17.26
70668;BMP280;58242;51.250;-1.118;2023-03-15T08:59:03;100366.88;;;17.46
70668;BMP280;58242;51.250;-1.118;2023-03-15T09:01:29;100355.59;;;17.62
70668;BMP280;58242;51.250;-1.118;2023-03-15T09:03:54;100358.16;;;17.77
70668;BMP280;58242;51.250;-1.118;2023-03-15T09:06:20;100363.00;;;17.90
70668;BMP280;58242;51.250;-1.118;2023-03-15T09:08:45;100365.47;;;17.98
70668;BMP280;58242;51.250;-1.118;2023-03-15T09:11:10;100367.50;;;18.05
70668;BMP280;58242;51.250;-1.118;2023-03-15T09:13:36;100360.88;;;18.02
70668;BMP280;58242;51.250;-1.118;2023-03-15T09:16:01;100366.19;;;17.96
70668;BMP280;58242;51.250;-1.118;2023-03-15T09:18:27;100370.81;;;17.95
70668;BMP280;58242;51.250;-1.118;2023-03-15T09:20:53;100363.75;;;17.87
70668;BMP280;58242;51.250;-1.118;2023-03-15T09:23:18;100359.84;;;17.85
70668;BMP280;58242;51.250;-1.118;2023-03-15T09:25:44;100355.22;;;17.85
70668;BMP280;58242;51.250;-1.118;2023-03-15T09:28:10;100360.75;;;17.92
70668;BMP280;58242;51.250;-1.118;2023-03-15T09:30:36;100357.72;;;17.97
70668;BMP280;58242;51.250;-1.118;2023-03-15T09:33:02;100361.56;;;17.96
70668;BMP280;58242;51.250;-1.118;2023-03-15T09:35:27;100370.88;;;17.98
70668;BMP280;58242;51.250;-1.118;2023-03-15T09:37:53;100370.88;;;17.98
70668;BMP280;58242;51.250;-1.118;2023-03-15T09:45:54;100379.56;;;17.85
70668;BMP280;58242;51.250;-1.118;2023-03-15T09:48:33;100381.44;;;17.81
70668;BMP280;58242;51.250;-1.118;2023-03-15T09:51:12;100387.53;;;17.79
70668;BMP280;58242;51.250;-1.118;2023-03-15T09:53:53;100388.56;;;17.93
70668;BMP280;58242;51.250;-1.118;2023-03-15T09:56:24;100389.47;;;18.00
70668;BMP280;58242;51.250;-1.118;2023-03-15T09:58:53;100382.59;;;18.06
70668;BMP280;58242;51.250;-1.118;2023-03-15T10:01:22;100387.38;;;18.15
70668;BMP280;58242;51.250;-1.118;2023-03-15T10:03:51;100387.56;;;18.29
70668;BMP280;58242;51.250;-1.118;2023-03-15T10:06:23;100381.81;;;18.31
70668;BMP280;58242;51.250;-1.118;2023-03-15T10:08:55;100389.53;;;18.32
70668;BMP280;58242;51.250;-1.118;2023-03-15T10:11:33;100391.06;;;18.30
70668;BMP280;58242;51.250;-1.118;2023-03-15T10:16:38;100399.78;;;18.16
70668;BMP280;58242;51.250;-1.118;2023-03-15T10:22:03;100402.25;;;18.03
70668;BMP280;58242;51.250;-1.118;2023-03-15T10:24:41;100399.78;;;17.95
70668;BMP280;58242;51.250;-1.118;2023-03-15T10:27:20;100403.19;;;17.88
70668;BMP280;58242;51.250;-1.118;2023-03-15T10:29:48;100413.94;;;17.85
70668;BMP280;58242;51.250;-1.118;2023-03-15T10:32:19;100412.31;;;17.81
70668;BMP280;58242;51.250;-1.118;2023-03-15T10:34:48;100402.59;;;17.80
70668;BMP280;58242;51.250;-1.118;2023-03-15T10:37:15;100406.81;;;17.77
70668;BMP280;58242;51.250;-1.118;2023-03-15T10:39:42;100404.47;;;17.76
70668;BMP280;58242;51.250;-1.118;2023-03-15T10:42:26;100405.97;;;17.73
70668;BMP280;58242;51.250;-1.118;2023-03-15T10:44:51;100408.69;;;17.73
70668;BMP280;58242;51.250;-1.118;2023-03-15T10:47:19;100403.34;;;17.77
70668;BMP280;58242;51.250;-1.118;2023-03-15T10:49:45;100404.22;;;17.81
70668;BMP280;58242;51.250;-1.118;2023-03-15T10:52:37;100394.97;;;17.81
70668;BMP280;58242;51.250;-1.118;2023-03-15T10:55:19;100392.66;;;17.83
70668;BMP280;58242;51.250;-1.118;2023-03-15T10:57:55;100380.34;;;17.86
70668;BMP280;58242;51.250;-1.118;2023-03-15T11:00:27;100381.59;;;17.92
70668;BMP280;58242;51.250;-1.118;2023-03-15T11:03:15;100380.50;;;17.96
70668;BMP280;58242;51.250;-1.118;2023-03-15T11:05:44;100381.41;;;18.03
70668;BMP280;58242;51.250;-1.118;2023-03-15T11:08:13;100373.81;;;18.12
70668;BMP280;58242;51.250;-1.118;2023-03-15T11:10:39;100375.13;;;18.25
70668;BMP280;58242;51.250;-1.118;2023-03-15T11:13:32;100368.72;;;18.36
70668;BMP280;58242;51.250;-1.118;2023-03-15T11:21:18;100373.75;;;18.91
70668;BMP280;58242;51.250;-1.118;2023-03-15T11:23:48;100370.84;;;19.10
70668;BMP280;58242;51.250;-1.118;2023-03-15T11:26:23;100360.56;;;19.25
70668;BMP280;58242;51.250;-1.118;2023-03-15T11:28:52;100363.81;;;19.41
70668;BMP280;58242;51.250;-1.118;2023-03-15T11:31:19;100360.53;;;19.61
70668;BMP280;58242;51.250;-1.118;2023-03-15T11:37:05;100360.81;;;19.98
70668;BMP280;58242;51.250;-1.118;2023-03-15T11:39:44;100351.69;;;20.20
70668;BMP280;58242;51.250;-1.118;2023-03-15T11:42:19;100360.34;;;20.35
70668;BMP280;58242;51.250;-1.118;2023-03-15T11:44:49;100363.50;;;20.47
70668;BMP280;58242;51.250;-1.118;2023-03-15T11:50:19;100346.84;;;20.52
70668;BMP280;58242;51.250;-1.118;2023-03-15T11:52:49;100352.63;;;20.51
70668;BMP280;58242;51.250;-1.118;2023-03-15T11:55:23;100349.13;;;20.47
70668;BMP280;58242;51.250;-1.118;2023-03-15T11:57:48;100353.03;;;20.46
70668;BMP280;58242;51.250;-1.118;2023-03-15T12:02:56;100346.38;;;20.37
70668;BMP280;58242;51.250;-1.118;2023-03-15T12:08:23;100350.91;;;20.19
70668;BMP280;58242;51.250;-1.118;2023-03-15T12:16:24;100338.97;;;19.74
70668;BMP280;58242;51.250;-1.118;2023-03-15T12:18:50;100336.13;;;19.61
70668;BMP280;58242;51.250;-1.118;2023-03-15T12:21:30;100346.44;;;19.49
70668;BMP280;58242;51.250;-1.118;2023-03-15T12:24:05;100340.97;;;19.45
70668;BMP280;58242;51.250;-1.118;2023-03-15T12:26:41;100334.00;;;19.41
70668;BMP280;58242;51.250;-1.118;2023-03-15T12:31:44;100320.72;;;19.29
70668;BMP280;58242;51.250;-1.118;2023-03-15T12:34:22;100315.97;;;19.19
70668;BMP280;58242;51.250;-1.118;2023-03-15T12:36:51;100312.81;;;19.11
70668;BMP280;58242;51.250;-1.118;2023-03-15T12:41:45;100319.22;;;19.00
70668;BMP280;58242;51.250;-1.118;2023-03-15T12:54:41;100325.19;;;18.48
70668;BMP280;58242;51.250;-1.118;2023-03-15T12:57:13;100323.19;;;18.41
70668;BMP280;58242;51.250;-1.118;2023-03-15T12:59:47;100325.41;;;18.36
70668;BMP280;58242;51.250;-1.118;2023-03-15T13:02:32;100324.19;;;18.30
70668;BMP280;58242;51.250;-1.118;2023-03-15T13:08:05;100316.69;;;18.20
70668;BMP280;58242;51.250;-1.118;2023-03-15T13:10:55;100310.84;;;18.15
70668;BMP280;58242;51.250;-1.118;2023-03-15T13:18:57;100302.84;;;17.97
70668;BMP280;58242;51.250;-1.118;2023-03-15T13:21:30;100302.38;;;17.91
70668;BMP280;58242;51.250;-1.118;2023-03-15T13:23:57;100298.00;;;17.83
70668;BMP280;58242;51.250;-1.118;2023-03-15T13:26:34;100293.34;;;17.81
70668;BMP280;58242;51.250;-1.118;2023-03-15T13:31:32;100270.84;;;17.77
70668;BMP280;58242;51.250;-1.118;2023-03-15T13:34:10;100274.31;;;17.77
70668;BMP280;58242;51.250;-1.118;2023-03-15T13:36:45;100273.25;;;17.81
70668;BMP280;58242;51.250;-1.118;2023-03-15T13:39:22;100265.16;;;17.81
70668;BMP280;58242;51.250;-1.118;2023-03-15T13:41:55;100268.25;;;17.83
70668;BMP280;58242;51.250;-1.118;2023-03-15T13:44:22;100264.84;;;17.86
70668;BMP280;58242;51.250;-1.118;2023-03-15T13:46:49;100251.31;;;17.86
70668;BMP280;58242;51.250;-1.118;2023-03-15T13:49:15;100252.47;;;17.85
70668;BMP280;58242;51.250;-1.118;2023-03-15T13:51:41;100246.66;;;17.87
70668;BMP280;58242;51.250;-1.118;2023-03-15T13:56:52;100251.03;;;17.95
70668;BMP280;58242;51.250;-1.118;2023-03-15T13:59:21;100237.97;;;18.00
70668;BMP280;58242;51.250;-1.118;2023-03-15T14:01:48;100231.81;;;18.03
70668;BMP280;58242;51.250;-1.118;2023-03-15T14:04:18;100227.97;;;18.04
70668;BMP280;58242;51.250;-1.118;2023-03-15T14:06:44;100229.06;;;17.99
70668;BMP280;58242;51.250;-1.118;2023-03-15T14:09:18;100211.69;;;18.00
70668;BMP280;58242;51.250;-1.118;2023-03-15T14:11:44;100210.91;;;18.00
70668;BMP280;58242;51.250;-1.118;2023-03-15T14:14:23;100205.81;;;17.95
70668;BMP280;58242;51.250;-1.118;2023-03-15T14:16:50;100211.16;;;17.88
70668;BMP280;58242;51.250;-1.118;2023-03-15T14:19:25;100208.44;;;17.88
70668;BMP280;58242;51.250;-1.118;2023-03-15T14:21:53;100209.19;;;17.85
70668;BMP280;58242;51.250;-1.118;2023-03-15T14:27:01;100208.28;;;17.78
70668;BMP280;58242;51.250;-1.118;2023-03-15T14:29:31;100215.19;;;17.76
70668;BMP280;58242;51.250;-1.118;2023-03-15T14:32:01;100199.34;;;17.74
70668;BMP280;58242;51.250;-1.118;2023-03-15T14:37:05;100198.03;;;17.65
70668;BMP280;58242;51.250;-1.118;2023-03-15T14:39:41;100199.56;;;17.63
70668;BMP280;58242;51.250;-1.118;2023-03-15T14:42:09;100205.75;;;17.63
70668;BMP280;58242;51.250;-1.118;2023-03-15T14:44:35;100194.91;;;17.60
70668;BMP280;58242;51.250;-1.118;2023-03-15T14:47:01;100185.56;;;17.57
70668;BMP280;58242;51.250;-1.118;2023-03-15T14:49:27;100188.22;;;17.54
70668;BMP280;58242;51.250;-1.118;2023-03-15T14:52:01;100185.09;;;17.48
70668;BMP280;58242;51.250;-1.118;2023-03-15T14:54:28;100177.19;;;17.37
70668;BMP280;58242;51.250;-1.118;2023-03-15T14:56:54;100180.50;;;17.27
70668;BMP280;58242;51.250;-1.118;2023-03-15T14:59:19;100176.56;;;17.21
70668;BMP280;58242;51.250;-1.118;2023-03-15T15:01:49;100181.53;;;17.19
70668;BMP280;58242;51.250;-1.118;2023-03-15T15:04:15;100172.25;;;17.17
70668;BMP280;58242;51.250;-1.118;2023-03-15T15:06:41;100161.78;;;17.15
70668;BMP280;58242;51.250;-1.118;2023-03-15T15:09:16;100165.66;;;17.14
70668;BMP280;58242;51.250;-1.118;2023-03-15T15:11:42;100162.94;;;17.14